Terminal Aerodrome Forecast
Issued by NWS

Home | Current Version | Previous Version | Text Only | Print | Product List | Glossary On
Versions: 1 2 3 4 5 6 7 8 9 10 11 12 13 14 15 16 17 18 19 20 21 22 23 24
000
FTUS42 KTAE 042300
TAFDHN
TAF
KDHN 042339Z 0500/0524 19007KT P6SM SCT030 BKN070
     FM050200 19007KT P6SM BKN020
     FM050500 20008KT 4SM BR OVC008
     FM050800 19008KT 2SM BR OVC003
     FM051600 30012KT 4SM -RA BR OVC008
     FM052000 33014KT P6SM -RA OVC012=

USA.gov is the U.S. government's official web portal to all federal, state and local government web resources and services.